createdAt,value
2022-11-12T00:02:03.027Z,3.90
2022-11-12T00:05:45.711Z,3.90
2022-11-12T00:09:27.545Z,2.63
2022-11-12T00:13:09.445Z,2.92
2022-11-12T00:16:51.332Z,2.92
2022-11-12T00:20:33.511Z,3.15
2022-11-12T00:24:15.352Z,3.38
2022-11-12T00:28:08.678Z,2.72
2022-11-12T00:31:50.490Z,3.42
2022-11-12T00:35:33.282Z,3.40
2022-11-12T00:39:15.149Z,2.30
2022-11-12T00:42:57.291Z,2.60
2022-11-12T00:46:39.197Z,2.95
2022-11-12T00:50:21.084Z,3.10
2022-11-12T00:54:03.164Z,3.05
2022-11-12T00:57:45.014Z,3.05
2022-11-12T01:01:28.119Z,2.85
2022-11-12T01:05:10.241Z,2.47
2022-11-12T01:08:52.833Z,2.65
2022-11-12T01:12:35.008Z,2.15
2022-11-12T01:16:20.516Z,2.47
2022-11-12T01:20:02.745Z,2.70
2022-11-12T01:23:44.646Z,2.42
2022-11-12T01:27:26.485Z,2.20
2022-11-12T01:31:23.069Z,2.28
2022-11-12T01:35:05.291Z,2.55
2022-11-12T01:38:47.890Z,3.00
2022-11-12T01:42:32.018Z,2.83
2022-11-12T01:46:21.516Z,2.65
2022-11-12T01:50:23.290Z,2.83
2022-11-12T01:54:09.204Z,2.97
2022-11-12T01:57:57.858Z,3.25
2022-11-12T02:01:39.847Z,3.30
2022-11-12T02:05:22.828Z,2.83
2022-11-12T02:09:05.170Z,3.65
2022-11-12T02:13:06.998Z,3.15
2022-11-12T02:16:50.121Z,2.40
2022-11-12T02:20:35.078Z,2.40
2022-11-12T02:24:16.881Z,3.10
2022-11-12T02:27:59.783Z,3.40
2022-11-12T02:31:41.632Z,3.17
2022-11-12T02:35:23.487Z,2.65
2022-11-12T02:39:05.851Z,3.40
2022-11-12T02:42:47.746Z,3.00
2022-11-12T02:46:29.562Z,3.30
2022-11-12T02:50:12.632Z,2.95
2022-11-12T02:53:54.447Z,2.58
2022-11-12T02:57:37.327Z,3.22
2022-11-12T03:01:19.295Z,2.83
2022-11-12T03:05:01.608Z,2.97
2022-11-12T03:08:43.566Z,3.15
2022-11-12T03:12:25.409Z,2.85
2022-11-12T03:16:07.419Z,2.70
2022-11-12T03:19:49.256Z,3.45
2022-11-12T03:23:31.163Z,3.35
2022-11-12T03:27:12.985Z,3.08
2022-11-12T03:30:59.157Z,2.90
2022-11-12T03:34:41.027Z,3.17
2022-11-12T03:38:23.535Z,3.63
2022-11-12T03:42:05.864Z,3.20
2022-11-12T03:45:47.888Z,2.88
2022-11-12T03:49:29.712Z,2.90
2022-11-12T03:53:11.810Z,2.95
2022-11-12T03:56:53.631Z,2.38
2022-11-12T04:00:35.462Z,3.45
2022-11-12T04:04:17.275Z,2.90
2022-11-12T04:08:21.512Z,3.13
2022-11-12T04:12:23.447Z,3.58
2022-11-12T04:16:32.099Z,2.70
2022-11-12T04:20:32.314Z,2.95
2022-11-12T04:24:34.147Z,3.25
2022-11-12T04:28:16.040Z,3.13
2022-11-12T04:31:57.876Z,2.70
2022-11-12T04:35:39.683Z,2.70
2022-11-12T04:39:21.521Z,3.47
2022-11-12T04:43:23.707Z,3.05
2022-11-12T04:47:05.539Z,3.25
2022-11-12T04:50:57.137Z,3.45
2022-11-12T04:54:39.003Z,3.90
2022-11-12T04:58:21.336Z,4.70
2022-11-12T05:02:03.243Z,4.50
2022-11-12T05:05:45.119Z,4.43
2022-11-12T05:09:29.078Z,4.80
2022-11-12T05:13:10.982Z,4.82
2022-11-12T05:16:52.809Z,4.40
2022-11-12T05:20:36.283Z,3.83
2022-11-12T05:24:40.490Z,4.40
2022-11-12T05:28:20.095Z,5.40
2022-11-12T05:32:02.404Z,4.03
2022-11-12T05:35:44.311Z,4.40
2022-11-12T05:39:26.249Z,4.70
2022-11-12T05:43:08.080Z,4.30
2022-11-12T05:46:50.495Z,4.13
2022-11-12T05:50:39.869Z,5.07
2022-11-12T05:54:33.490Z,4.38
2022-11-12T05:58:15.558Z,3.13
2022-11-12T06:01:57.564Z,3.60
2022-11-12T06:05:39.687Z,3.25
2022-11-12T06:09:21.492Z,3.60
2022-11-12T06:13:03.367Z,3.67
2022-11-12T06:16:45.190Z,4.00
2022-11-12T06:20:27.048Z,4.38
2022-11-12T06:24:09.489Z,4.55
2022-11-12T06:27:51.315Z,5.20
2022-11-12T06:31:33.145Z,4.25
2022-11-12T06:35:16.032Z,7.05
2022-11-12T06:38:57.983Z,7.47
2022-11-12T06:42:40.223Z,6.10
2022-11-12T06:46:22.088Z,7.15
2022-11-12T06:50:04.243Z,7.93
2022-11-12T06:53:46.703Z,6.82
2022-11-12T06:57:28.567Z,6.60
2022-11-12T07:01:12.538Z,7.05
2022-11-12T07:04:54.612Z,7.18
2022-11-12T07:08:37.412Z,6.82
2022-11-12T07:12:19.248Z,7.70
2022-11-12T07:16:02.335Z,7.53
2022-11-12T07:19:44.151Z,8.38
2022-11-12T07:23:26.903Z,7.47
2022-11-12T07:27:09.056Z,10.30
2022-11-12T07:30:58.792Z,9.48
2022-11-12T07:34:40.724Z,9.60
2022-11-12T07:38:22.579Z,9.55
2022-11-12T07:42:04.517Z,9.30
2022-11-12T07:45:46.339Z,8.70
2022-11-12T07:49:28.172Z,8.90
2022-11-12T07:53:10.377Z,7.93
2022-11-12T07:56:52.195Z,8.45
2022-11-12T08:00:34.032Z,8.80
2022-11-12T08:04:16.086Z,8.63
2022-11-12T08:07:58.055Z,20.23
2022-11-12T08:11:40.794Z,21.05
2022-11-12T08:15:22.911Z,9.93
2022-11-12T08:19:04.752Z,9.00
2022-11-12T08:22:49.381Z,8.02
2022-11-12T08:26:31.634Z,8.52
2022-11-12T08:30:14.115Z,8.85
2022-11-12T08:33:55.983Z,7.35
2022-11-12T08:37:37.820Z,8.43
2022-11-12T08:41:19.690Z,8.98
2022-11-12T08:45:01.534Z,9.15
2022-11-12T08:48:43.368Z,8.45
2022-11-12T08:52:25.243Z,9.52
2022-11-12T08:56:07.288Z,8.07
2022-11-12T08:59:49.120Z,7.75
2022-11-12T09:03:31.000Z,9.02
2022-11-12T09:07:28.651Z,10.48
2022-11-12T09:11:14.808Z,9.85
2022-11-12T09:15:09.576Z,10.02
2022-11-12T09:18:58.531Z,9.07
2022-11-12T09:22:40.610Z,9.57
2022-11-12T09:26:22.841Z,11.90
2022-11-12T09:30:06.712Z,10.38
2022-11-12T09:33:48.912Z,11.45
2022-11-12T09:37:31.303Z,11.68
2022-11-12T09:41:36.805Z,9.73
2022-11-12T09:45:31.306Z,8.00
2022-11-12T09:49:19.669Z,8.00
2022-11-12T09:53:09.400Z,8.68
2022-11-12T09:56:52.435Z,7.72
2022-11-12T10:00:35.061Z,8.15
2022-11-12T10:04:22.778Z,7.25
2022-11-12T10:08:48.455Z,7.53
2022-11-12T10:12:47.195Z,6.78
2022-11-12T10:16:47.127Z,5.65
2022-11-12T10:20:38.839Z,6.00
2022-11-12T10:24:22.772Z,5.35
2022-11-12T10:28:37.267Z,5.07
2022-11-12T10:36:17.382Z,6.20
2022-11-12T10:39:59.245Z,6.22
2022-11-12T10:43:57.176Z,4.78
2022-11-12T10:47:43.085Z,4.22
2022-11-12T10:51:36.129Z,4.28
2022-11-12T10:55:20.962Z,3.70
2022-11-12T10:59:13.282Z,4.15
2022-11-12T11:02:56.208Z,3.60
2022-11-12T11:06:38.135Z,3.78
2022-11-12T11:10:37.918Z,3.58
2022-11-12T11:14:22.754Z,3.67
2022-11-12T11:18:04.610Z,3.50
2022-11-12T11:21:49.513Z,3.55
2022-11-12T11:25:34.348Z,3.50
2022-11-12T11:29:34.732Z,17.65
2022-11-12T11:33:29.968Z,8.20
2022-11-12T11:37:20.620Z,5.45
2022-11-12T11:41:37.764Z,4.25
2022-11-12T11:45:40.532Z,4.47
2022-11-12T11:49:41.092Z,3.72
2022-11-12T11:53:51.898Z,3.25
2022-11-12T11:57:45.607Z,3.10
2022-11-12T12:01:52.776Z,3.33
2022-11-12T12:05:56.192Z,4.20
2022-11-12T12:09:52.984Z,3.35
2022-11-12T12:14:31.751Z,3.17
2022-11-12T12:19:04.416Z,3.10
2022-11-12T12:22:59.244Z,3.13
2022-11-12T12:26:50.951Z,3.58
2022-11-12T12:30:36.873Z,3.42
2022-11-12T12:34:25.094Z,3.27
2022-11-12T12:38:23.443Z,2.78
2022-11-12T12:42:18.422Z,2.53
2022-11-12T12:46:00.535Z,2.88
2022-11-12T12:49:45.338Z,2.90
2022-11-12T12:53:30.183Z,3.28
2022-11-12T12:57:33.317Z,2.88
2022-11-12T13:01:21.266Z,2.70
2022-11-12T13:05:03.435Z,3.00
2022-11-12T13:08:45.797Z,2.80
2022-11-12T13:13:04.873Z,2.63
2022-11-12T13:16:50.527Z,3.15
2022-11-12T13:20:35.640Z,2.75
2022-11-12T13:24:17.491Z,3.47
2022-11-12T13:28:10.838Z,3.10
2022-11-12T13:32:32.134Z,2.75
2022-11-12T13:36:25.018Z,3.10
2022-11-12T13:40:31.282Z,2.65
2022-11-12T13:47:58.332Z,2.50
2022-11-12T13:51:46.688Z,2.67
2022-11-12T13:55:28.518Z,3.08
2022-11-12T13:59:19.854Z,2.65
2022-11-12T14:03:05.519Z,2.80
2022-11-12T14:06:51.079Z,2.58
2022-11-12T14:10:32.892Z,2.75
2022-11-12T14:14:36.096Z,2.78
2022-11-12T14:18:47.364Z,3.88
2022-11-12T14:22:45.379Z,4.20
2022-11-12T14:26:40.188Z,3.03
2022-11-12T14:30:23.335Z,2.90
2022-11-12T14:34:28.814Z,2.85
2022-11-12T14:38:42.632Z,2.77
2022-11-12T14:42:24.735Z,2.30
2022-11-12T14:46:08.508Z,7.30
2022-11-12T14:49:50.542Z,3.75
2022-11-12T14:53:41.192Z,2.90
2022-11-12T14:57:31.285Z,2.20
2022-11-12T15:02:08.970Z,2.88
2022-11-12T15:05:30.360Z,2.15
2022-11-12T15:09:18.774Z,2.38
2022-11-12T15:13:27.000Z,3.67
2022-11-12T15:17:34.653Z,2.33
2022-11-12T15:21:27.389Z,2.55
2022-11-12T15:25:22.197Z,2.75
2022-11-12T15:29:15.501Z,2.33
2022-11-12T15:33:18.232Z,2.35
2022-11-12T15:37:09.511Z,2.92
2022-11-12T15:40:57.766Z,2.58
2022-11-12T15:44:39.815Z,3.20
2022-11-12T15:48:21.992Z,3.28
2022-11-12T15:52:03.983Z,3.67
2022-11-12T15:55:46.692Z,2.63
2022-11-12T15:59:29.278Z,2.72
2022-11-12T16:03:16.043Z,3.05
2022-11-12T16:10:41.704Z,3.22
2022-11-12T16:14:24.935Z,3.25
2022-11-12T16:18:11.339Z,3.50
2022-11-12T16:21:53.196Z,3.75
2022-11-12T16:25:38.224Z,3.50
2022-11-12T16:29:20.145Z,3.70
2022-11-12T16:33:02.018Z,4.32
2022-11-12T16:36:44.063Z,3.20
2022-11-12T16:40:28.060Z,3.97
2022-11-12T16:44:09.853Z,5.03
2022-11-12T16:47:54.049Z,4.10
2022-11-12T16:51:35.884Z,4.20
2022-11-12T16:55:17.744Z,3.90
2022-11-12T16:58:59.898Z,4.20
2022-11-12T17:02:45.344Z,5.47
2022-11-12T17:06:36.580Z,4.70
2022-11-12T17:10:23.141Z,3.97
2022-11-12T17:14:06.009Z,3.92
2022-11-12T17:17:47.867Z,4.43
2022-11-12T17:21:30.105Z,4.30
2022-11-12T17:25:11.979Z,6.80
2022-11-12T17:29:00.122Z,4.60
2022-11-12T17:32:43.855Z,4.18
2022-11-12T17:36:27.731Z,3.95
2022-11-12T17:40:10.006Z,4.85
2022-11-12T17:43:59.524Z,4.22
2022-11-12T17:47:41.344Z,4.68
2022-11-12T17:51:25.535Z,5.03
2022-11-12T17:55:07.736Z,5.45
2022-11-12T17:58:50.508Z,5.30
2022-11-12T18:02:32.328Z,6.35
2022-11-12T18:06:16.590Z,6.80
2022-11-12T18:09:58.450Z,6.22
2022-11-12T18:13:40.742Z,5.57
2022-11-12T18:17:22.630Z,5.38
2022-11-12T18:21:05.098Z,6.00
2022-11-12T18:24:50.674Z,6.30
2022-11-12T18:28:33.481Z,6.18
2022-11-12T18:32:15.347Z,6.60
2022-11-12T18:36:05.353Z,7.13
2022-11-12T18:39:47.232Z,6.80
2022-11-12T18:43:29.457Z,7.35
2022-11-12T18:47:11.559Z,6.65
2022-11-12T18:50:57.117Z,7.30
2022-11-12T18:54:38.968Z,7.18
2022-11-12T18:58:21.111Z,7.75
2022-11-12T19:02:03.010Z,8.52
2022-11-12T19:05:45.423Z,9.48
2022-11-12T19:09:27.327Z,9.88
2022-11-12T19:13:09.220Z,9.25
2022-11-12T19:16:51.051Z,7.95
2022-11-12T19:20:32.868Z,9.10
2022-11-12T19:24:14.764Z,9.32
2022-11-12T19:27:56.572Z,8.10
2022-11-12T19:31:38.762Z,9.23
2022-11-12T19:35:20.587Z,8.60
2022-11-12T19:39:02.836Z,8.52
2022-11-12T19:42:47.480Z,9.48
2022-11-12T19:46:30.968Z,8.88
2022-11-12T19:50:12.783Z,8.73
2022-11-12T19:53:54.656Z,10.13
2022-11-12T19:57:36.523Z,8.65
2022-11-12T20:01:19.137Z,8.82
2022-11-12T20:05:01.095Z,9.52
2022-11-12T20:08:43.016Z,8.27
2022-11-12T20:12:25.350Z,8.98
2022-11-12T20:16:13.224Z,8.55
2022-11-12T20:19:55.045Z,9.27
2022-11-12T20:23:38.706Z,9.48
2022-11-12T20:27:20.831Z,8.95
2022-11-12T20:31:07.147Z,9.13
2022-11-12T20:34:49.031Z,8.55
2022-11-12T20:38:30.995Z,8.02
2022-11-12T20:42:13.009Z,8.48
2022-11-12T20:45:54.848Z,8.70
2022-11-12T20:49:36.701Z,9.48
2022-11-12T20:53:18.541Z,8.02
2022-11-12T20:57:03.039Z,9.00
2022-11-12T21:00:44.932Z,8.45
2022-11-12T21:04:26.746Z,9.57
2022-11-12T21:08:08.563Z,8.13
2022-11-12T21:11:50.392Z,8.80
2022-11-12T21:15:32.202Z,8.80
2022-11-12T21:19:14.222Z,8.63
2022-11-12T21:22:57.417Z,9.80
2022-11-12T21:26:39.499Z,9.25
2022-11-12T21:30:21.414Z,8.75
2022-11-12T21:34:04.635Z,8.85
2022-11-12T21:37:46.640Z,9.23
2022-11-12T21:41:31.951Z,10.68
2022-11-12T21:45:13.932Z,9.40
2022-11-12T21:48:56.577Z,9.65
2022-11-12T21:52:38.503Z,8.93
2022-11-12T21:56:20.380Z,9.57
2022-11-12T22:00:26.659Z,10.10
2022-11-12T22:04:08.319Z,7.88
2022-11-12T22:07:51.607Z,7.82
2022-11-12T22:11:33.433Z,10.23
2022-11-12T22:15:18.840Z,8.35
2022-11-12T22:19:03.378Z,8.02
2022-11-12T22:22:45.254Z,8.65
2022-11-12T22:26:28.895Z,9.18
2022-11-12T22:30:11.186Z,9.38
2022-11-12T22:33:53.746Z,8.02
2022-11-12T22:37:35.626Z,7.93
2022-11-12T22:41:36.093Z,8.57
2022-11-12T22:45:18.218Z,8.27
2022-11-12T22:49:00.534Z,7.85
2022-11-12T22:52:47.279Z,7.60
2022-11-12T22:56:35.497Z,8.60
2022-11-12T23:00:27.755Z,8.45
2022-11-12T23:04:09.667Z,8.50
2022-11-12T23:07:51.982Z,8.27
2022-11-12T23:11:37.542Z,9.05
2022-11-12T23:15:19.351Z,8.63
2022-11-12T23:19:01.290Z,8.85
2022-11-12T23:22:43.111Z,9.15
2022-11-12T23:26:28.042Z,9.80
2022-11-12T23:30:10.324Z,8.98
2022-11-12T23:33:54.402Z,9.20
2022-11-12T23:37:36.324Z,9.55
2022-11-12T23:41:22.832Z,8.80
2022-11-12T23:45:05.087Z,10.18
2022-11-12T23:48:47.091Z,9.43
2022-11-12T23:52:28.915Z,9.63
2022-11-12T23:56:12.569Z,9.82
2022-11-12T23:59:54.456Z,10.05
